sensor_id;sensor_type;location;lat;lon;timestamp;P1;durP1;ratioP1;P2;durP2;ratioP2
11185;SDS011;5649;52.422;13.754;2022-10-30T00:02:05;14.50;;;6.40;;
11185;SDS011;5649;52.422;13.754;2022-10-30T00:04:31;20.40;;;7.13;;
11185;SDS011;5649;52.422;13.754;2022-10-30T00:06:57;19.23;;;5.73;;
11185;SDS011;5649;52.422;13.754;2022-10-30T00:09:23;19.57;;;7.13;;
11185;SDS011;5649;52.422;13.754;2022-10-30T00:11:49;16.60;;;6.93;;
11185;SDS011;5649;52.422;13.754;2022-10-30T00:14:15;21.83;;;5.40;;
11185;SDS011;5649;52.422;13.754;2022-10-30T00:16:42;30.20;;;6.10;;
11185;SDS011;5649;52.422;13.754;2022-10-30T00:19:08;22.17;;;7.20;;
11185;SDS011;5649;52.422;13.754;2022-10-30T00:21:34;15.40;;;5.97;;
11185;SDS011;5649;52.422;13.754;2022-10-30T00:24:00;15.40;;;6.80;;
11185;SDS011;5649;52.422;13.754;2022-10-30T00:26:26;10.80;;;5.90;;
11185;SDS011;5649;52.422;13.754;2022-10-30T00:28:53;12.13;;;5.80;;
11185;SDS011;5649;52.422;13.754;2022-10-30T00:31:19;12.27;;;5.83;;
11185;SDS011;5649;52.422;13.754;2022-10-30T00:33:52;11.30;;;6.43;;
11185;SDS011;5649;52.422;13.754;2022-10-30T00:36:19;21.33;;;7.50;;
11185;SDS011;5649;52.422;13.754;2022-10-30T00:38:45;14.43;;;6.70;;
11185;SDS011;5649;52.422;13.754;2022-10-30T00:41:13;12.73;;;6.00;;
11185;SDS011;5649;52.422;13.754;2022-10-30T00:43:39;24.63;;;6.93;;
11185;SDS011;5649;52.422;13.754;2022-10-30T00:48:55;10.83;;;6.70;;
11185;SDS011;5649;52.422;13.754;2022-10-30T00:51:22;17.37;;;6.33;;
11185;SDS011;5649;52.422;13.754;2022-10-30T00:53:48;19.60;;;6.17;;
11185;SDS011;5649;52.422;13.754;2022-10-30T00:56:16;9.97;;;5.67;;
11185;SDS011;5649;52.422;13.754;2022-10-30T00:58:45;15.80;;;5.30;;
11185;SDS011;5649;52.422;13.754;2022-10-30T01:01:13;18.63;;;7.27;;
11185;SDS011;5649;52.422;13.754;2022-10-30T01:03:41;10.57;;;5.83;;
11185;SDS011;5649;52.422;13.754;2022-10-30T01:06:08;20.00;;;6.97;;
11185;SDS011;5649;52.422;13.754;2022-10-30T01:08:35;16.70;;;7.37;;
11185;SDS011;5649;52.422;13.754;2022-10-30T01:11:02;23.57;;;6.90;;
11185;SDS011;5649;52.422;13.754;2022-10-30T01:13:28;19.70;;;6.70;;
11185;SDS011;5649;52.422;13.754;2022-10-30T01:18:47;19.93;;;7.20;;
11185;SDS011;5649;52.422;13.754;2022-10-30T01:26:29;13.10;;;5.90;;
11185;SDS011;5649;52.422;13.754;2022-10-30T01:32:07;15.27;;;6.77;;
11185;SDS011;5649;52.422;13.754;2022-10-30T01:34:50;20.87;;;6.57;;
11185;SDS011;5649;52.422;13.754;2022-10-30T01:37:33;12.40;;;5.60;;
11185;SDS011;5649;52.422;13.754;2022-10-30T01:40:05;16.27;;;7.10;;
11185;SDS011;5649;52.422;13.754;2022-10-30T01:42:44;39.13;;;6.97;;
11185;SDS011;5649;52.422;13.754;2022-10-30T01:45:12;31.53;;;7.17;;
11185;SDS011;5649;52.422;13.754;2022-10-30T01:50:32;17.90;;;8.20;;
11185;SDS011;5649;52.422;13.754;2022-10-30T01:53:06;18.17;;;7.33;;
11185;SDS011;5649;52.422;13.754;2022-10-30T01:56:24;18.67;;;7.30;;
11185;SDS011;5649;52.422;13.754;2022-10-30T01:58:40;13.53;;;6.33;;
11185;SDS011;5649;52.422;13.754;2022-10-30T02:01:09;18.13;;;7.13;;
11185;SDS011;5649;52.422;13.754;2022-10-30T02:03:35;18.40;;;5.87;;
11185;SDS011;5649;52.422;13.754;2022-10-30T02:06:01;14.80;;;6.47;;
11185;SDS011;5649;52.422;13.754;2022-10-30T02:08:27;19.33;;;6.67;;
11185;SDS011;5649;52.422;13.754;2022-10-30T02:10:53;12.80;;;5.83;;
11185;SDS011;5649;52.422;13.754;2022-10-30T02:13:20;9.90;;;5.83;;
11185;SDS011;5649;52.422;13.754;2022-10-30T02:15:46;28.73;;;6.60;;
11185;SDS011;5649;52.422;13.754;2022-10-30T02:18:12;25.47;;;6.80;;
11185;SDS011;5649;52.422;13.754;2022-10-30T02:20:38;22.50;;;5.67;;
11185;SDS011;5649;52.422;13.754;2022-10-30T02:23:04;15.60;;;5.10;;
11185;SDS011;5649;52.422;13.754;2022-10-30T02:25:31;16.27;;;6.10;;
11185;SDS011;5649;52.422;13.754;2022-10-30T02:27:57;21.13;;;5.20;;
11185;SDS011;5649;52.422;13.754;2022-10-30T02:30:23;16.53;;;5.60;;
11185;SDS011;5649;52.422;13.754;2022-10-30T02:32:49;28.30;;;7.50;;
11185;SDS011;5649;52.422;13.754;2022-10-30T02:35:15;19.80;;;6.30;;
11185;SDS011;5649;52.422;13.754;2022-10-30T02:37:41;17.10;;;5.60;;
11185;SDS011;5649;52.422;13.754;2022-10-30T02:40:07;14.00;;;5.40;;
11185;SDS011;5649;52.422;13.754;2022-10-30T02:42:34;14.60;;;6.40;;
11185;SDS011;5649;52.422;13.754;2022-10-30T02:45:00;16.03;;;5.80;;
11185;SDS011;5649;52.422;13.754;2022-10-30T02:47:27;13.40;;;5.67;;
11185;SDS011;5649;52.422;13.754;2022-10-30T02:49:53;9.67;;;5.10;;
11185;SDS011;5649;52.422;13.754;2022-10-30T02:52:19;19.93;;;5.47;;
11185;SDS011;5649;52.422;13.754;2022-10-30T02:54:45;11.67;;;5.53;;
11185;SDS011;5649;52.422;13.754;2022-10-30T02:57:11;17.00;;;5.73;;
11185;SDS011;5649;52.422;13.754;2022-10-30T02:59:37;28.67;;;8.63;;
11185;SDS011;5649;52.422;13.754;2022-10-30T03:02:03;21.63;;;4.57;;
11185;SDS011;5649;52.422;13.754;2022-10-30T03:04:29;12.93;;;5.90;;
11185;SDS011;5649;52.422;13.754;2022-10-30T03:06:55;19.43;;;6.37;;
11185;SDS011;5649;52.422;13.754;2022-10-30T03:09:21;12.83;;;6.97;;
11185;SDS011;5649;52.422;13.754;2022-10-30T03:11:46;15.93;;;5.70;;
11185;SDS011;5649;52.422;13.754;2022-10-30T03:14:12;8.60;;;4.70;;
11185;SDS011;5649;52.422;13.754;2022-10-30T03:16:39;11.70;;;5.60;;
11185;SDS011;5649;52.422;13.754;2022-10-30T03:19:04;8.53;;;5.10;;
11185;SDS011;5649;52.422;13.754;2022-10-30T03:21:30;7.47;;;5.23;;
11185;SDS011;5649;52.422;13.754;2022-10-30T03:23:56;9.93;;;5.03;;
11185;SDS011;5649;52.422;13.754;2022-10-30T03:26:23;10.40;;;5.30;;
11185;SDS011;5649;52.422;13.754;2022-10-30T03:28:49;10.40;;;5.83;;
11185;SDS011;5649;52.422;13.754;2022-10-30T03:31:16;11.20;;;5.40;;
11185;SDS011;5649;52.422;13.754;2022-10-30T03:33:42;24.00;;;6.13;;
11185;SDS011;5649;52.422;13.754;2022-10-30T03:36:09;12.13;;;4.60;;
11185;SDS011;5649;52.422;13.754;2022-10-30T03:38:36;12.43;;;5.27;;
11185;SDS011;5649;52.422;13.754;2022-10-30T03:41:02;9.90;;;4.80;;
11185;SDS011;5649;52.422;13.754;2022-10-30T03:43:28;31.03;;;7.47;;
11185;SDS011;5649;52.422;13.754;2022-10-30T03:45:54;17.50;;;5.97;;
11185;SDS011;5649;52.422;13.754;2022-10-30T03:48:22;11.27;;;5.50;;
11185;SDS011;5649;52.422;13.754;2022-10-30T03:50:48;15.37;;;4.67;;
11185;SDS011;5649;52.422;13.754;2022-10-30T03:53:15;12.63;;;5.40;;
11185;SDS011;5649;52.422;13.754;2022-10-30T03:55:41;14.57;;;5.27;;
11185;SDS011;5649;52.422;13.754;2022-10-30T03:58:07;16.93;;;5.50;;
11185;SDS011;5649;52.422;13.754;2022-10-30T04:00:33;12.37;;;4.83;;
11185;SDS011;5649;52.422;13.754;2022-10-30T04:03:00;9.53;;;4.80;;
11185;SDS011;5649;52.422;13.754;2022-10-30T04:05:26;11.77;;;5.43;;
11185;SDS011;5649;52.422;13.754;2022-10-30T04:08:00;11.30;;;5.00;;
11185;SDS011;5649;52.422;13.754;2022-10-30T04:10:26;16.73;;;5.10;;
11185;SDS011;5649;52.422;13.754;2022-10-30T04:12:58;11.70;;;5.50;;
11185;SDS011;5649;52.422;13.754;2022-10-30T04:15:24;26.00;;;7.03;;
11185;SDS011;5649;52.422;13.754;2022-10-30T04:17:50;12.23;;;4.93;;
11185;SDS011;5649;52.422;13.754;2022-10-30T04:20:17;7.63;;;5.30;;
11185;SDS011;5649;52.422;13.754;2022-10-30T04:22:43;14.73;;;5.83;;
11185;SDS011;5649;52.422;13.754;2022-10-30T04:25:09;14.90;;;5.87;;
11185;SDS011;5649;52.422;13.754;2022-10-30T04:27:39;27.10;;;6.13;;
11185;SDS011;5649;52.422;13.754;2022-10-30T04:30:05;15.57;;;4.83;;
11185;SDS011;5649;52.422;13.754;2022-10-30T04:32:31;13.57;;;6.43;;
11185;SDS011;5649;52.422;13.754;2022-10-30T04:34:57;9.67;;;4.87;;
11185;SDS011;5649;52.422;13.754;2022-10-30T04:37:23;11.10;;;5.43;;
11185;SDS011;5649;52.422;13.754;2022-10-30T04:39:49;20.03;;;6.70;;
11185;SDS011;5649;52.422;13.754;2022-10-30T04:42:15;9.53;;;5.10;;
11185;SDS011;5649;52.422;13.754;2022-10-30T04:44:41;8.50;;;5.00;;
11185;SDS011;5649;52.422;13.754;2022-10-30T04:47:07;11.93;;;4.83;;
11185;SDS011;5649;52.422;13.754;2022-10-30T04:49:33;20.40;;;4.60;;
11185;SDS011;5649;52.422;13.754;2022-10-30T04:51:59;12.43;;;5.60;;
11185;SDS011;5649;52.422;13.754;2022-10-30T04:54:25;11.37;;;4.73;;
11185;SDS011;5649;52.422;13.754;2022-10-30T04:56:52;11.87;;;4.40;;
11185;SDS011;5649;52.422;13.754;2022-10-30T04:59:18;17.57;;;6.27;;
11185;SDS011;5649;52.422;13.754;2022-10-30T05:01:44;16.53;;;6.80;;
11185;SDS011;5649;52.422;13.754;2022-10-30T05:04:10;23.63;;;6.10;;
11185;SDS011;5649;52.422;13.754;2022-10-30T05:06:36;11.10;;;6.20;;
11185;SDS011;5649;52.422;13.754;2022-10-30T05:09:03;21.83;;;7.30;;
11185;SDS011;5649;52.422;13.754;2022-10-30T05:11:29;9.60;;;6.23;;
11185;SDS011;5649;52.422;13.754;2022-10-30T05:13:55;15.70;;;6.80;;
11185;SDS011;5649;52.422;13.754;2022-10-30T05:16:21;15.77;;;6.70;;
11185;SDS011;5649;52.422;13.754;2022-10-30T05:18:47;8.40;;;4.80;;
11185;SDS011;5649;52.422;13.754;2022-10-30T05:21:13;16.00;;;6.10;;
11185;SDS011;5649;52.422;13.754;2022-10-30T05:23:39;32.47;;;8.47;;
11185;SDS011;5649;52.422;13.754;2022-10-30T05:26:05;25.93;;;7.80;;
11185;SDS011;5649;52.422;13.754;2022-10-30T05:28:31;53.80;;;8.13;;
11185;SDS011;5649;52.422;13.754;2022-10-30T05:30:57;29.00;;;7.60;;
11185;SDS011;5649;52.422;13.754;2022-10-30T05:33:23;29.37;;;7.80;;
11185;SDS011;5649;52.422;13.754;2022-10-30T05:35:49;22.10;;;7.70;;
11185;SDS011;5649;52.422;13.754;2022-10-30T05:38:15;26.23;;;7.97;;
11185;SDS011;5649;52.422;13.754;2022-10-30T05:40:41;22.37;;;8.17;;
11185;SDS011;5649;52.422;13.754;2022-10-30T05:43:07;18.00;;;6.40;;
11185;SDS011;5649;52.422;13.754;2022-10-30T05:45:33;8.90;;;5.00;;
11185;SDS011;5649;52.422;13.754;2022-10-30T05:48:00;20.30;;;6.20;;
11185;SDS011;5649;52.422;13.754;2022-10-30T05:50:26;14.90;;;6.90;;
11185;SDS011;5649;52.422;13.754;2022-10-30T05:52:56;17.27;;;7.17;;
11185;SDS011;5649;52.422;13.754;2022-10-30T05:55:22;27.70;;;7.10;;
11185;SDS011;5649;52.422;13.754;2022-10-30T05:57:48;13.97;;;6.00;;
11185;SDS011;5649;52.422;13.754;2022-10-30T06:00:15;19.43;;;6.73;;
11185;SDS011;5649;52.422;13.754;2022-10-30T06:02:41;12.47;;;6.30;;
11185;SDS011;5649;52.422;13.754;2022-10-30T06:05:07;16.20;;;6.70;;
11185;SDS011;5649;52.422;13.754;2022-10-30T06:07:33;11.87;;;6.00;;
11185;SDS011;5649;52.422;13.754;2022-10-30T06:09:59;14.83;;;6.43;;
11185;SDS011;5649;52.422;13.754;2022-10-30T06:12:25;17.30;;;7.57;;
11185;SDS011;5649;52.422;13.754;2022-10-30T06:14:51;13.00;;;6.90;;
11185;SDS011;5649;52.422;13.754;2022-10-30T06:17:17;24.37;;;8.37;;
11185;SDS011;5649;52.422;13.754;2022-10-30T06:19:43;18.57;;;7.93;;
11185;SDS011;5649;52.422;13.754;2022-10-30T06:22:09;25.20;;;7.03;;
11185;SDS011;5649;52.422;13.754;2022-10-30T06:24:35;14.33;;;7.33;;
11185;SDS011;5649;52.422;13.754;2022-10-30T06:27:01;30.40;;;7.83;;
11185;SDS011;5649;52.422;13.754;2022-10-30T06:29:27;22.87;;;7.47;;
11185;SDS011;5649;52.422;13.754;2022-10-30T06:31:53;26.83;;;6.90;;
11185;SDS011;5649;52.422;13.754;2022-10-30T06:34:19;16.00;;;6.40;;
11185;SDS011;5649;52.422;13.754;2022-10-30T06:36:45;21.43;;;6.70;;
11185;SDS011;5649;52.422;13.754;2022-10-30T06:39:11;22.17;;;7.10;;
11185;SDS011;5649;52.422;13.754;2022-10-30T06:41:37;41.43;;;9.20;;
11185;SDS011;5649;52.422;13.754;2022-10-30T06:44:03;13.23;;;5.40;;
11185;SDS011;5649;52.422;13.754;2022-10-30T06:46:29;17.27;;;7.70;;
11185;SDS011;5649;52.422;13.754;2022-10-30T06:48:55;12.27;;;7.23;;
11185;SDS011;5649;52.422;13.754;2022-10-30T06:51:21;19.00;;;6.40;;
11185;SDS011;5649;52.422;13.754;2022-10-30T06:53:47;17.03;;;6.90;;
11185;SDS011;5649;52.422;13.754;2022-10-30T06:56:13;16.03;;;7.07;;
11185;SDS011;5649;52.422;13.754;2022-10-30T06:58:39;11.70;;;6.40;;
11185;SDS011;5649;52.422;13.754;2022-10-30T07:01:05;14.20;;;6.13;;
11185;SDS011;5649;52.422;13.754;2022-10-30T07:03:32;14.43;;;7.30;;
11185;SDS011;5649;52.422;13.754;2022-10-30T07:05:58;18.43;;;6.47;;
11185;SDS011;5649;52.422;13.754;2022-10-30T07:08:24;21.97;;;7.93;;
11185;SDS011;5649;52.422;13.754;2022-10-30T07:10:50;24.63;;;7.40;;
11185;SDS011;5649;52.422;13.754;2022-10-30T07:13:16;14.73;;;8.53;;
11185;SDS011;5649;52.422;13.754;2022-10-30T07:15:42;14.60;;;7.87;;
11185;SDS011;5649;52.422;13.754;2022-10-30T07:18:08;30.37;;;7.73;;
11185;SDS011;5649;52.422;13.754;2022-10-30T07:20:35;18.63;;;6.33;;
11185;SDS011;5649;52.422;13.754;2022-10-30T07:23:01;26.60;;;8.30;;
11185;SDS011;5649;52.422;13.754;2022-10-30T07:25:28;13.33;;;6.80;;
11185;SDS011;5649;52.422;13.754;2022-10-30T07:27:55;16.87;;;7.47;;
11185;SDS011;5649;52.422;13.754;2022-10-30T07:30:22;17.80;;;7.47;;
11185;SDS011;5649;52.422;13.754;2022-10-30T07:35:23;20.73;;;6.80;;
11185;SDS011;5649;52.422;13.754;2022-10-30T07:37:49;18.00;;;7.00;;
11185;SDS011;5649;52.422;13.754;2022-10-30T07:40:15;20.77;;;7.70;;
11185;SDS011;5649;52.422;13.754;2022-10-30T07:42:41;18.40;;;6.93;;
11185;SDS011;5649;52.422;13.754;2022-10-30T07:45:07;15.00;;;7.57;;
11185;SDS011;5649;52.422;13.754;2022-10-30T07:47:37;16.13;;;7.17;;
11185;SDS011;5649;52.422;13.754;2022-10-30T07:50:03;16.57;;;6.40;;
11185;SDS011;5649;52.422;13.754;2022-10-30T07:52:30;19.43;;;6.47;;
11185;SDS011;5649;52.422;13.754;2022-10-30T07:54:57;16.93;;;6.87;;
11185;SDS011;5649;52.422;13.754;2022-10-30T07:57:23;25.43;;;6.90;;
11185;SDS011;5649;52.422;13.754;2022-10-30T07:59:48;18.00;;;6.77;;
11185;SDS011;5649;52.422;13.754;2022-10-30T08:02:15;17.90;;;7.40;;
11185;SDS011;5649;52.422;13.754;2022-10-30T08:04:41;33.40;;;7.50;;
11185;SDS011;5649;52.422;13.754;2022-10-30T08:07:07;10.97;;;6.80;;
11185;SDS011;5649;52.422;13.754;2022-10-30T08:09:33;23.20;;;6.23;;
11185;SDS011;5649;52.422;13.754;2022-10-30T08:11:59;13.67;;;7.30;;
11185;SDS011;5649;52.422;13.754;2022-10-30T08:14:25;12.73;;;7.43;;
11185;SDS011;5649;52.422;13.754;2022-10-30T08:16:51;16.43;;;7.17;;
11185;SDS011;5649;52.422;13.754;2022-10-30T08:19:17;22.00;;;7.07;;
11185;SDS011;5649;52.422;13.754;2022-10-30T08:21:43;14.30;;;7.50;;
11185;SDS011;5649;52.422;13.754;2022-10-30T08:24:09;15.13;;;7.23;;
11185;SDS011;5649;52.422;13.754;2022-10-30T08:26:35;21.37;;;7.17;;
11185;SDS011;5649;52.422;13.754;2022-10-30T08:29:01;29.27;;;8.23;;
11185;SDS011;5649;52.422;13.754;2022-10-30T08:31:27;31.90;;;7.00;;
11185;SDS011;5649;52.422;13.754;2022-10-30T08:33:53;26.80;;;9.70;;
11185;SDS011;5649;52.422;13.754;2022-10-30T08:36:19;26.50;;;8.40;;
11185;SDS011;5649;52.422;13.754;2022-10-30T08:38:45;13.20;;;7.27;;
11185;SDS011;5649;52.422;13.754;2022-10-30T08:41:11;21.87;;;8.23;;
11185;SDS011;5649;52.422;13.754;2022-10-30T08:43:37;17.27;;;8.00;;
11185;SDS011;5649;52.422;13.754;2022-10-30T08:46:03;15.10;;;6.40;;
11185;SDS011;5649;52.422;13.754;2022-10-30T08:48:29;16.10;;;6.87;;
11185;SDS011;5649;52.422;13.754;2022-10-30T08:50:58;21.73;;;8.10;;
11185;SDS011;5649;52.422;13.754;2022-10-30T08:53:25;21.67;;;5.97;;
11185;SDS011;5649;52.422;13.754;2022-10-30T08:55:51;17.73;;;6.93;;
11185;SDS011;5649;52.422;13.754;2022-10-30T08:58:17;14.53;;;6.63;;
11185;SDS011;5649;52.422;13.754;2022-10-30T09:00:43;22.53;;;7.80;;
11185;SDS011;5649;52.422;13.754;2022-10-30T09:03:09;19.47;;;7.60;;
11185;SDS011;5649;52.422;13.754;2022-10-30T09:05:35;26.20;;;5.93;;
11185;SDS011;5649;52.422;13.754;2022-10-30T09:08:01;15.13;;;7.53;;
11185;SDS011;5649;52.422;13.754;2022-10-30T09:10:27;21.77;;;7.30;;
11185;SDS011;5649;52.422;13.754;2022-10-30T09:12:54;18.47;;;6.43;;
11185;SDS011;5649;52.422;13.754;2022-10-30T09:15:20;26.57;;;7.77;;
11185;SDS011;5649;52.422;13.754;2022-10-30T09:17:46;15.63;;;6.47;;
11185;SDS011;5649;52.422;13.754;2022-10-30T09:20:12;35.57;;;6.60;;
11185;SDS011;5649;52.422;13.754;2022-10-30T09:22:41;22.40;;;5.90;;
11185;SDS011;5649;52.422;13.754;2022-10-30T09:25:07;14.40;;;5.50;;
11185;SDS011;5649;52.422;13.754;2022-10-30T09:27:39;16.83;;;5.80;;
11185;SDS011;5649;52.422;13.754;2022-10-30T09:30:05;16.73;;;6.27;;
11185;SDS011;5649;52.422;13.754;2022-10-30T09:32:32;12.47;;;5.73;;
11185;SDS011;5649;52.422;13.754;2022-10-30T09:34:58;18.63;;;5.20;;
11185;SDS011;5649;52.422;13.754;2022-10-30T09:37:23;15.03;;;6.67;;
11185;SDS011;5649;52.422;13.754;2022-10-30T09:39:51;17.13;;;5.47;;
11185;SDS011;5649;52.422;13.754;2022-10-30T09:44:47;16.83;;;6.10;;
11185;SDS011;5649;52.422;13.754;2022-10-30T09:50:02;17.00;;;5.63;;
11185;SDS011;5649;52.422;13.754;2022-10-30T09:55:21;16.40;;;5.60;;
11185;SDS011;5649;52.422;13.754;2022-10-30T10:00:36;15.63;;;6.67;;
11185;SDS011;5649;52.422;13.754;2022-10-30T10:05:50;11.97;;;4.93;;
11185;SDS011;5649;52.422;13.754;2022-10-30T10:08:18;30.53;;;7.77;;
11185;SDS011;5649;52.422;13.754;2022-10-30T10:10:47;21.13;;;6.40;;
11185;SDS011;5649;52.422;13.754;2022-10-30T10:13:27;30.73;;;6.00;;
11185;SDS011;5649;52.422;13.754;2022-10-30T10:15:55;12.90;;;5.53;;
11185;SDS011;5649;52.422;13.754;2022-10-30T10:18:23;9.57;;;4.60;;
11185;SDS011;5649;52.422;13.754;2022-10-30T10:20:51;11.53;;;5.43;;
11185;SDS011;5649;52.422;13.754;2022-10-30T10:23:18;17.80;;;5.93;;
11185;SDS011;5649;52.422;13.754;2022-10-30T10:25:54;14.37;;;5.73;;
11185;SDS011;5649;52.422;13.754;2022-10-30T10:31:14;11.93;;;4.40;;
11185;SDS011;5649;52.422;13.754;2022-10-30T10:33:55;11.33;;;4.60;;
11185;SDS011;5649;52.422;13.754;2022-10-30T10:36:35;24.23;;;5.27;;
11185;SDS011;5649;52.422;13.754;2022-10-30T10:39:23;22.53;;;5.10;;
11185;SDS011;5649;52.422;13.754;2022-10-30T10:47:27;22.33;;;4.73;;
11185;SDS011;5649;52.422;13.754;2022-10-30T10:55:14;20.27;;;4.50;;
11185;SDS011;5649;52.422;13.754;2022-10-30T10:57:41;24.17;;;6.10;;
11185;SDS011;5649;52.422;13.754;2022-10-30T11:00:17;14.23;;;4.83;;
11185;SDS011;5649;52.422;13.754;2022-10-30T11:03:02;13.73;;;4.90;;
11185;SDS011;5649;52.422;13.754;2022-10-30T11:05:34;11.17;;;4.63;;
11185;SDS011;5649;52.422;13.754;2022-10-30T11:08:05;11.60;;;4.77;;
11185;SDS011;5649;52.422;13.754;2022-10-30T11:10:34;18.13;;;4.10;;
11185;SDS011;5649;52.422;13.754;2022-10-30T11:13:00;12.47;;;4.50;;
11185;SDS011;5649;52.422;13.754;2022-10-30T11:20:22;15.23;;;4.60;;
11185;SDS011;5649;52.422;13.754;2022-10-30T11:22:52;28.33;;;5.80;;
11185;SDS011;5649;52.422;13.754;2022-10-30T11:25:20;21.33;;;5.03;;
11185;SDS011;5649;52.422;13.754;2022-10-30T11:27:56;10.83;;;4.77;;
11185;SDS011;5649;52.422;13.754;2022-10-30T11:30:23;11.00;;;4.97;;
11185;SDS011;5649;52.422;13.754;2022-10-30T11:32:52;12.43;;;5.30;;
11185;SDS011;5649;52.422;13.754;2022-10-30T11:35:18;15.43;;;4.37;;
11185;SDS011;5649;52.422;13.754;2022-10-30T11:37:46;16.83;;;3.90;;
11185;SDS011;5649;52.422;13.754;2022-10-30T11:42:43;16.47;;;4.57;;
11185;SDS011;5649;52.422;13.754;2022-10-30T11:45:14;11.97;;;3.40;;
11185;SDS011;5649;52.422;13.754;2022-10-30T11:47:41;15.23;;;4.00;;
11185;SDS011;5649;52.422;13.754;2022-10-30T11:50:15;13.27;;;3.93;;
11185;SDS011;5649;52.422;13.754;2022-10-30T11:52:42;14.10;;;4.07;;
11185;SDS011;5649;52.422;13.754;2022-10-30T11:55:26;10.27;;;3.83;;
11185;SDS011;5649;52.422;13.754;2022-10-30T11:57:56;18.60;;;4.70;;
11185;SDS011;5649;52.422;13.754;2022-10-30T12:00:23;13.97;;;4.37;;
11185;SDS011;5649;52.422;13.754;2022-10-30T12:02:53;13.40;;;4.03;;
11185;SDS011;5649;52.422;13.754;2022-10-30T12:07:52;15.63;;;5.10;;
11185;SDS011;5649;52.422;13.754;2022-10-30T12:10:25;25.60;;;3.67;;
11185;SDS011;5649;52.422;13.754;2022-10-30T12:12:51;18.87;;;5.20;;
11185;SDS011;5649;52.422;13.754;2022-10-30T12:15:24;15.30;;;4.47;;
11185;SDS011;5649;52.422;13.754;2022-10-30T12:18:00;25.93;;;4.13;;
11185;SDS011;5649;52.422;13.754;2022-10-30T12:20:27;21.57;;;4.03;;
11185;SDS011;5649;52.422;13.754;2022-10-30T12:22:53;12.57;;;3.67;;
11185;SDS011;5649;52.422;13.754;2022-10-30T12:27:46;25.23;;;3.90;;
11185;SDS011;5649;52.422;13.754;2022-10-30T12:30:16;15.10;;;2.87;;
11185;SDS011;5649;52.422;13.754;2022-10-30T12:32:56;23.50;;;3.57;;
11185;SDS011;5649;52.422;13.754;2022-10-30T12:35:31;5.93;;;3.47;;
11185;SDS011;5649;52.422;13.754;2022-10-30T12:37:59;11.17;;;3.50;;
11185;SDS011;5649;52.422;13.754;2022-10-30T12:40:28;10.20;;;3.57;;
11185;SDS011;5649;52.422;13.754;2022-10-30T12:42:57;24.83;;;4.60;;
11185;SDS011;5649;52.422;13.754;2022-10-30T12:45:30;20.97;;;3.50;;
11185;SDS011;5649;52.422;13.754;2022-10-30T12:47:59;13.10;;;3.27;;
11185;SDS011;5649;52.422;13.754;2022-10-30T12:50:26;10.70;;;3.20;;
11185;SDS011;5649;52.422;13.754;2022-10-30T12:55:40;30.83;;;4.50;;
11185;SDS011;5649;52.422;13.754;2022-10-30T12:58:13;21.10;;;3.70;;
11185;SDS011;5649;52.422;13.754;2022-10-30T13:00:46;9.13;;;3.80;;
11185;SDS011;5649;52.422;13.754;2022-10-30T13:03:22;7.73;;;3.10;;
11185;SDS011;5649;52.422;13.754;2022-10-30T13:05:54;7.10;;;3.73;;
11185;SDS011;5649;52.422;13.754;2022-10-30T13:08:26;7.13;;;3.10;;
11185;SDS011;5649;52.422;13.754;2022-10-30T13:10:57;13.20;;;4.60;;
11185;SDS011;5649;52.422;13.754;2022-10-30T13:13:29;6.73;;;3.07;;
11185;SDS011;5649;52.422;13.754;2022-10-30T13:15:57;10.93;;;3.77;;
11185;SDS011;5649;52.422;13.754;2022-10-30T13:18:24;10.03;;;3.70;;
11185;SDS011;5649;52.422;13.754;2022-10-30T13:23:26;6.80;;;3.40;;
11185;SDS011;5649;52.422;13.754;2022-10-30T13:28:30;17.33;;;3.77;;
11185;SDS011;5649;52.422;13.754;2022-10-30T13:31:00;12.40;;;3.70;;
11185;SDS011;5649;52.422;13.754;2022-10-30T13:33:29;8.87;;;3.57;;
11185;SDS011;5649;52.422;13.754;2022-10-30T13:35:59;12.10;;;4.47;;
11185;SDS011;5649;52.422;13.754;2022-10-30T13:40:56;13.47;;;3.63;;
11185;SDS011;5649;52.422;13.754;2022-10-30T13:43:36;14.40;;;3.80;;
11185;SDS011;5649;52.422;13.754;2022-10-30T13:53:54;16.17;;;4.10;;
11185;SDS011;5649;52.422;13.754;2022-10-30T13:56:24;12.50;;;4.50;;
11185;SDS011;5649;52.422;13.754;2022-10-30T14:01:24;8.27;;;3.40;;
11185;SDS011;5649;52.422;13.754;2022-10-30T14:08:53;7.37;;;3.50;;
11185;SDS011;5649;52.422;13.754;2022-10-30T14:11:22;10.13;;;4.37;;
11185;SDS011;5649;52.422;13.754;2022-10-30T14:16:31;9.90;;;4.23;;
11185;SDS011;5649;52.422;13.754;2022-10-30T14:19:01;19.20;;;4.83;;
11185;SDS011;5649;52.422;13.754;2022-10-30T14:21:28;21.87;;;4.70;;
11185;SDS011;5649;52.422;13.754;2022-10-30T14:27:26;9.40;;;3.90;;
11185;SDS011;5649;52.422;13.754;2022-10-30T14:31:57;11.43;;;4.97;;
11185;SDS011;5649;52.422;13.754;2022-10-30T14:34:45;9.50;;;3.70;;
11185;SDS011;5649;52.422;13.754;2022-10-30T14:39:47;20.70;;;3.97;;
11185;SDS011;5649;52.422;13.754;2022-10-30T14:55:28;8.63;;;3.40;;
11185;SDS011;5649;52.422;13.754;2022-10-30T15:00:43;7.80;;;5.13;;
11185;SDS011;5649;52.422;13.754;2022-10-30T15:05:57;22.20;;;4.47;;
11185;SDS011;5649;52.422;13.754;2022-10-30T15:08:32;11.63;;;4.70;;
11185;SDS011;5649;52.422;13.754;2022-10-30T15:13:29;15.87;;;4.50;;
11185;SDS011;5649;52.422;13.754;2022-10-30T15:15:55;28.50;;;6.57;;
11185;SDS011;5649;52.422;13.754;2022-10-30T15:18:22;28.83;;;6.17;;
11185;SDS011;5649;52.422;13.754;2022-10-30T15:20:49;12.07;;;5.33;;
11185;SDS011;5649;52.422;13.754;2022-10-30T15:25:46;19.23;;;5.67;;
11185;SDS011;5649;52.422;13.754;2022-10-30T15:28:14;13.20;;;5.47;;
11185;SDS011;5649;52.422;13.754;2022-10-30T15:30:56;12.40;;;5.70;;
11185;SDS011;5649;52.422;13.754;2022-10-30T15:33:23;26.37;;;6.00;;
11185;SDS011;5649;52.422;13.754;2022-10-30T15:35:49;11.90;;;5.03;;
11185;SDS011;5649;52.422;13.754;2022-10-30T15:38:15;11.70;;;5.10;;
11185;SDS011;5649;52.422;13.754;2022-10-30T15:40:41;17.83;;;5.83;;
11185;SDS011;5649;52.422;13.754;2022-10-30T15:43:09;20.57;;;5.97;;
11185;SDS011;5649;52.422;13.754;2022-10-30T15:45:37;25.40;;;6.20;;
11185;SDS011;5649;52.422;13.754;2022-10-30T15:48:10;14.03;;;4.90;;
11185;SDS011;5649;52.422;13.754;2022-10-30T15:50:42;26.47;;;6.00;;
11185;SDS011;5649;52.422;13.754;2022-10-30T15:53:16;11.23;;;4.27;;
11185;SDS011;5649;52.422;13.754;2022-10-30T15:55:43;17.43;;;5.83;;
11185;SDS011;5649;52.422;13.754;2022-10-30T15:58:10;18.53;;;6.33;;
11185;SDS011;5649;52.422;13.754;2022-10-30T16:00:38;29.57;;;9.27;;
11185;SDS011;5649;52.422;13.754;2022-10-30T16:03:06;41.87;;;15.33;;
11185;SDS011;5649;52.422;13.754;2022-10-30T16:05:32;40.50;;;15.20;;
11185;SDS011;5649;52.422;13.754;2022-10-30T16:07:59;38.30;;;13.70;;
11185;SDS011;5649;52.422;13.754;2022-10-30T16:10:27;26.90;;;13.63;;
11185;SDS011;5649;52.422;13.754;2022-10-30T16:12:56;32.83;;;11.40;;
11185;SDS011;5649;52.422;13.754;2022-10-30T16:17:48;46.80;;;8.53;;
11185;SDS011;5649;52.422;13.754;2022-10-30T16:20:14;19.50;;;6.90;;
11185;SDS011;5649;52.422;13.754;2022-10-30T16:22:42;18.83;;;6.67;;
11185;SDS011;5649;52.422;13.754;2022-10-30T16:25:08;17.47;;;6.67;;
11185;SDS011;5649;52.422;13.754;2022-10-30T16:27:44;21.50;;;6.53;;
11185;SDS011;5649;52.422;13.754;2022-10-30T16:30:13;18.53;;;6.97;;
11185;SDS011;5649;52.422;13.754;2022-10-30T16:32:39;12.03;;;5.20;;
11185;SDS011;5649;52.422;13.754;2022-10-30T16:35:08;23.07;;;5.93;;
11185;SDS011;5649;52.422;13.754;2022-10-30T16:37:36;34.23;;;6.00;;
11185;SDS011;5649;52.422;13.754;2022-10-30T16:40:23;34.27;;;5.10;;
11185;SDS011;5649;52.422;13.754;2022-10-30T16:42:56;19.33;;;5.80;;